Terminal Aerodrome Forecast
Issued by NWS

Home | Current Version | Previous Version | Text Only | Print | Product List | Glossary On
Versions: 1 2 3 4 5 6 7 8 9 10 11 12 13 14 15 16 17 18 19 20 21 22 23 24 25 26 27 28 29 30 31 32 33 34 35 36 37 38 39
000
FTUS43 KDTX 221725
TAFYIP
TAF
KYIP 221725Z 2218/2318 24010KT 4SM BR SCT010 BKN025
     FM222000 22010KT P6SM BKN025
     FM230200 19008KT 4SM BR BKN015 OVC025
     FM230800 21010KT 1/2SM FG OVC008 PROB30 2310/2313 -SHRA
     FM231400 24007KT 5SM BR OVC025
     FM231700 30008KT P6SM SCT040 BKN100=

USA.gov is the U.S. government's official web portal to all federal, state and local government web resources and services.